메인 페이지
METAR-TAF:

METAR-TAF

공항 :

룩셈부르크 핀델 국제공항

룩셈부르크, 룩셈부르크

위도: 49-37N, 경도: 006-13E, 고도: 376m

현재 날씨관측

예보는 21분 전, 23:50시(UTC)에 발표되었습니다.
북동13kt
온도 3°C
습도 48%
기압 1035 hPa
시정 10km 이상
1500m 미만 상공 구름 및 적란운 없음

METAR: ELLX 232350Z 05013KT CAVOK 03/M07 Q1035 NOSIG

시각: 01:11 (00:11 UTC)

예보

예보는 1 시간 11분 전, 23:00시(UTC)에 발표되었습니다.
예보 대상 시간: 24일 00시부터 25일 06시까지 (UTC)
북북동6kt
시정 10km 이상
1500m 미만 상공 구름 및 적란운 없음
일시적
24일 08시부터 24일 17시까지 (UTC)
동북동12kt

TAF: ELLX 232300Z 2400/2506 03006KT CAVOK TEMPO 2408/2417 07012KT

4,000개 이상의 공항 관측 자료 및 예보 (METAR 및 TAF 보고).

지도상에서 검색 가능한 기상관측소가 노란 점과 빨간 점으로 표시되어 있습니다.

기상관측소 명을 보려면 표시 위로 마우스를 이동하세요.

날씨 관측과 예보를 보려면 클릭하세요.

지도 변경 : 확대하려면 엑스 표시가 있는 녹색 버튼, 축소하려면 빼기 표시가 있는 녹색 버튼, 다음 페이지의 지도를 보려면 녹색 화살표를 클릭하세요.


METAR-TAF: